createdAt,value
2018-03-11T00:01:34.989Z,45.70
2018-03-11T00:04:00.957Z,38.47
2018-03-11T00:06:26.930Z,43.07
2018-03-11T00:08:53.686Z,47.10
2018-03-11T00:11:19.679Z,40.10
2018-03-11T00:13:45.643Z,41.00
2018-03-11T00:16:12.425Z,46.50
2018-03-11T00:18:38.439Z,42.20
2018-03-11T00:21:05.214Z,43.47
2018-03-11T00:23:31.311Z,47.47
2018-03-11T00:25:57.377Z,49.40
2018-03-11T00:28:23.447Z,43.97
2018-03-11T00:30:49.543Z,47.17
2018-03-11T00:33:16.318Z,53.70
2018-03-11T00:35:42.269Z,49.17
2018-03-11T00:38:08.327Z,48.80
2018-03-11T00:40:34.318Z,49.97
2018-03-11T00:43:00.331Z,49.70
2018-03-11T00:45:27.025Z,48.77
2018-03-11T00:47:52.993Z,50.80
2018-03-11T00:50:19.009Z,45.13
2018-03-11T00:52:45.005Z,50.90
2018-03-11T00:55:11.741Z,48.57
2018-03-11T00:57:37.694Z,50.17
2018-03-11T01:00:04.450Z,50.50
2018-03-11T01:02:31.161Z,49.20
2018-03-11T01:04:57.146Z,53.53
2018-03-11T01:07:23.916Z,48.77
2018-03-11T01:09:49.909Z,44.63
2018-03-11T01:12:16.625Z,51.23
2018-03-11T01:14:42.609Z,47.37
2018-03-11T01:17:08.601Z,51.50
2018-03-11T01:19:34.585Z,46.73
2018-03-11T01:22:01.302Z,49.27
2018-03-11T01:24:27.309Z,45.50
2018-03-11T01:26:53.332Z,53.13
2018-03-11T01:29:19.305Z,49.83
2018-03-11T01:31:45.265Z,54.00
2018-03-11T01:34:11.279Z,49.07
2018-03-11T01:36:37.276Z,46.17
2018-03-11T01:39:03.229Z,46.20
2018-03-11T01:41:29.185Z,52.57
2018-03-11T01:43:55.174Z,49.50
2018-03-11T01:46:21.186Z,45.63
2018-03-11T01:48:48.661Z,49.37
2018-03-11T01:51:14.629Z,45.37
2018-03-11T01:53:40.633Z,44.80
2018-03-11T01:56:06.585Z,45.03
2018-03-11T01:58:33.326Z,56.17
2018-03-11T02:00:59.278Z,46.23
2018-03-11T02:03:25.953Z,44.23
2018-03-11T02:05:51.937Z,46.03
2018-03-11T02:08:18.702Z,41.23
2018-03-11T02:10:44.721Z,41.90
2018-03-11T02:13:10.717Z,44.83
2018-03-11T02:15:36.657Z,39.17
2018-03-11T02:18:02.678Z,41.63
2018-03-11T02:20:28.653Z,39.80
2018-03-11T02:22:55.001Z,37.40
2018-03-11T02:25:21.010Z,42.17
2018-03-11T02:27:46.961Z,40.53
2018-03-11T02:30:12.905Z,38.03
2018-03-11T02:32:40.403Z,36.60
2018-03-11T02:35:07.141Z,38.10
2018-03-11T02:37:33.105Z,37.37
2018-03-11T02:39:59.789Z,37.03
2018-03-11T02:42:25.788Z,41.43
2018-03-11T02:44:52.516Z,40.20
2018-03-11T02:47:18.503Z,37.33
2018-03-11T02:49:44.489Z,39.87
2018-03-11T02:52:10.480Z,34.20
2018-03-11T02:54:36.457Z,32.93
2018-03-11T02:57:02.420Z,37.30
2018-03-11T02:59:29.185Z,33.63
2018-03-11T03:01:55.887Z,35.47
2018-03-11T03:04:21.849Z,34.63
2018-03-11T03:06:47.821Z,31.67
2018-03-11T03:09:13.765Z,33.97
2018-03-11T03:11:39.768Z,36.70
2018-03-11T03:14:05.706Z,36.77
2018-03-11T03:16:32.383Z,29.03
2018-03-11T03:18:58.359Z,38.90
2018-03-11T03:21:24.312Z,30.33
2018-03-11T03:23:50.249Z,35.20
2018-03-11T03:26:16.266Z,36.17
2018-03-11T03:28:42.240Z,37.80
2018-03-11T03:31:08.947Z,43.40
2018-03-11T03:33:34.933Z,42.37
2018-03-11T03:36:01.652Z,42.00
2018-03-11T03:38:27.630Z,47.47
2018-03-11T03:40:54.320Z,45.23
2018-03-11T03:43:20.303Z,47.80
2018-03-11T03:45:46.317Z,49.53
2018-03-11T03:48:12.304Z,45.13
2018-03-11T03:50:38.272Z,39.93
2018-03-11T03:53:04.266Z,46.20
2018-03-11T03:55:30.248Z,46.43
2018-03-11T03:57:56.216Z,42.67
2018-03-11T04:00:22.197Z,49.60
2018-03-11T04:02:48.193Z,39.80
2018-03-11T04:05:14.907Z,47.40
2018-03-11T04:07:40.869Z,47.10
2018-03-11T04:10:06.836Z,43.83
2018-03-11T04:12:32.816Z,45.53
2018-03-11T04:14:58.764Z,47.13
2018-03-11T04:17:24.728Z,48.47
2018-03-11T04:19:51.450Z,42.60
2018-03-11T04:22:17.415Z,41.27
2018-03-11T04:24:44.142Z,41.97
2018-03-11T04:27:10.096Z,41.93
2018-03-11T04:29:36.100Z,46.30
2018-03-11T04:32:02.076Z,39.87
2018-03-11T04:34:28.777Z,40.20
2018-03-11T04:36:54.765Z,41.83
2018-03-11T04:39:21.514Z,42.20
2018-03-11T04:41:47.500Z,39.23
2018-03-11T04:44:13.476Z,36.23
2018-03-11T04:46:39.455Z,44.43
2018-03-11T04:49:05.453Z,38.27
2018-03-11T04:51:31.417Z,40.53
2018-03-11T04:53:57.405Z,36.63
2018-03-11T04:56:23.392Z,37.87
2018-03-11T04:58:49.349Z,35.27
2018-03-11T05:01:15.348Z,34.60
2018-03-11T05:03:42.032Z,40.60
2018-03-11T05:06:08.173Z,36.23
2018-03-11T05:08:34.252Z,33.43
2018-03-11T05:11:00.192Z,36.07
2018-03-11T05:13:26.177Z,38.30
2018-03-11T05:15:52.127Z,31.07
2018-03-11T05:18:18.109Z,31.47
2018-03-11T05:20:44.081Z,32.20
2018-03-11T05:23:10.061Z,34.57
2018-03-11T05:25:36.046Z,34.93
2018-03-11T05:28:01.996Z,31.07
2018-03-11T05:30:27.928Z,30.13
2018-03-11T05:32:53.927Z,31.57
2018-03-11T05:35:20.628Z,30.40
2018-03-11T05:37:46.613Z,26.37
2018-03-11T05:40:13.318Z,29.53
2018-03-11T05:42:39.265Z,27.40
2018-03-11T05:45:05.232Z,25.60
2018-03-11T05:47:31.215Z,24.17
2018-03-11T05:49:57.177Z,25.43
2018-03-11T05:52:23.128Z,27.47
2018-03-11T05:54:49.129Z,26.60
2018-03-11T05:57:15.079Z,24.80
2018-03-11T05:59:41.096Z,22.00
2018-03-11T06:02:07.057Z,23.77
2018-03-11T06:04:33.044Z,27.10
2018-03-11T06:06:59.766Z,23.27
2018-03-11T06:09:25.728Z,25.93
2018-03-11T06:11:52.457Z,22.70
2018-03-11T06:14:18.437Z,21.93
2018-03-11T06:16:44.369Z,24.77
2018-03-11T06:19:10.501Z,21.67
2018-03-11T06:21:37.240Z,21.97
2018-03-11T06:24:03.949Z,23.17
2018-03-11T06:26:29.945Z,23.13
2018-03-11T06:28:56.608Z,22.50
2018-03-11T06:31:22.568Z,20.50
2018-03-11T06:33:48.541Z,20.17
2018-03-11T06:36:15.265Z,20.57
2018-03-11T06:38:41.238Z,20.83
2018-03-11T06:41:07.951Z,23.07
2018-03-11T06:43:33.903Z,24.57
2018-03-11T06:45:59.877Z,21.50
2018-03-11T06:48:25.848Z,22.73
2018-03-11T06:50:51.866Z,24.00
2018-03-11T06:53:17.822Z,21.20
2018-03-11T06:55:43.821Z,20.13
2018-03-11T06:58:09.791Z,21.70
2018-03-11T07:00:35.796Z,21.93
2018-03-11T07:03:01.744Z,20.50
2018-03-11T07:05:27.680Z,21.30
2018-03-11T07:07:53.685Z,20.93
2018-03-11T07:10:20.430Z,20.67
2018-03-11T07:12:47.121Z,21.30
2018-03-11T07:15:13.105Z,20.77
2018-03-11T07:17:39.048Z,20.77
2018-03-11T07:20:05.021Z,21.63
2018-03-11T07:22:30.995Z,23.87
2018-03-11T07:24:56.972Z,22.77
2018-03-11T07:27:23.688Z,24.37
2018-03-11T07:29:49.693Z,21.60
2018-03-11T07:32:15.643Z,21.90
2018-03-11T07:34:41.619Z,22.10
2018-03-11T07:37:07.571Z,21.90
2018-03-11T07:39:34.264Z,28.73
2018-03-11T07:42:00.290Z,23.73
2018-03-11T07:44:26.254Z,22.70
2018-03-11T07:46:52.251Z,22.00
2018-03-11T07:49:18.265Z,22.97
2018-03-11T07:51:44.204Z,21.00
2018-03-11T07:54:10.984Z,21.33
2018-03-11T07:56:36.936Z,21.60
2018-03-11T07:59:02.929Z,22.00
2018-03-11T08:01:29.626Z,18.63
2018-03-11T08:03:55.944Z,20.27
2018-03-11T08:06:21.977Z,21.20
2018-03-11T08:08:47.976Z,17.37
2018-03-11T08:11:13.948Z,19.10
2018-03-11T08:13:40.663Z,17.80
2018-03-11T08:16:06.780Z,18.03
2018-03-11T08:18:32.728Z,16.47
2018-03-11T08:20:58.675Z,16.13
2018-03-11T08:23:24.975Z,17.00
2018-03-11T08:25:50.961Z,15.23
2018-03-11T08:28:17.699Z,15.23
2018-03-11T08:30:43.677Z,16.80
2018-03-11T08:33:09.652Z,14.13
2018-03-11T08:35:35.653Z,15.20
2018-03-11T08:38:01.588Z,15.43
2018-03-11T08:40:27.640Z,13.60
2018-03-11T08:42:53.643Z,13.63
2018-03-11T08:45:20.517Z,14.60
2018-03-11T08:47:46.553Z,13.23
2018-03-11T08:50:12.575Z,14.23
2018-03-11T08:52:39.303Z,16.17
2018-03-11T08:55:05.351Z,13.90
2018-03-11T08:57:31.352Z,14.83
2018-03-11T08:59:57.366Z,15.03
2018-03-11T09:02:23.424Z,15.83
2018-03-11T09:04:49.397Z,13.87
2018-03-11T09:07:15.345Z,14.50
2018-03-11T09:09:42.056Z,13.03
2018-03-11T09:12:08.065Z,14.33
2018-03-11T09:14:34.028Z,14.47
2018-03-11T09:17:00.005Z,14.67
2018-03-11T09:19:26.724Z,13.83
2018-03-11T09:21:52.685Z,13.20
2018-03-11T09:24:18.649Z,12.40
2018-03-11T09:26:44.613Z,12.30
2018-03-11T09:29:10.598Z,13.40
2018-03-11T09:31:36.541Z,15.73
2018-03-11T09:34:03.225Z,12.10
2018-03-11T09:36:29.207Z,12.73
2018-03-11T09:38:55.905Z,12.00
2018-03-11T09:41:21.914Z,12.60
2018-03-11T09:43:48.641Z,14.73
2018-03-11T09:46:14.624Z,12.13
2018-03-11T09:48:40.589Z,12.80
2018-03-11T09:51:06.536Z,11.97
2018-03-11T09:53:32.500Z,13.90
2018-03-11T09:55:58.494Z,12.13
2018-03-11T09:58:24.457Z,10.80
2018-03-11T10:00:50.425Z,11.40
2018-03-11T10:03:17.393Z,11.23
2018-03-11T10:05:43.399Z,11.07
2018-03-11T10:08:09.340Z,11.30
2018-03-11T10:10:35.336Z,12.30
2018-03-11T10:13:01.339Z,10.70
2018-03-11T10:15:28.141Z,10.97
2018-03-11T10:17:54.109Z,12.70
2018-03-11T10:20:20.853Z,11.00
2018-03-11T10:22:47.608Z,12.93
2018-03-11T10:25:13.624Z,12.00
2018-03-11T10:27:39.799Z,12.40
2018-03-11T10:30:06.565Z,12.37
2018-03-11T10:32:32.479Z,12.87
2018-03-11T10:34:58.480Z,12.03
2018-03-11T10:37:24.473Z,12.47
2018-03-11T10:39:51.184Z,11.70
2018-03-11T10:42:17.152Z,12.20
2018-03-11T10:44:43.888Z,12.80
2018-03-11T10:47:09.949Z,12.80
2018-03-11T10:49:36.777Z,11.90
2018-03-11T10:52:02.861Z,11.17
2018-03-11T10:54:28.844Z,9.43
2018-03-11T10:56:54.834Z,11.60
2018-03-11T10:59:20.900Z,10.77
2018-03-11T11:01:53.008Z,11.50
2018-03-11T11:04:19.000Z,10.83
2018-03-11T11:06:44.948Z,11.90
2018-03-11T11:09:10.945Z,12.40
2018-03-11T11:11:37.689Z,10.80
2018-03-11T11:14:04.392Z,10.50
2018-03-11T11:16:30.382Z,11.10
2018-03-11T11:18:57.098Z,11.20
2018-03-11T11:21:23.212Z,10.83
2018-03-11T11:26:37.749Z,9.30
2018-03-11T11:29:03.691Z,9.20
2018-03-11T11:31:29.737Z,10.30
2018-03-11T11:33:55.751Z,9.00
2018-03-11T11:36:21.880Z,10.70
2018-03-11T11:38:47.853Z,10.20
2018-03-11T11:41:14.564Z,10.60
2018-03-11T11:43:40.515Z,9.43
2018-03-11T11:46:07.309Z,8.60
2018-03-11T11:48:33.306Z,9.23
2018-03-11T11:50:59.300Z,9.83
2018-03-11T11:53:25.352Z,12.47
2018-03-11T11:55:51.377Z,8.80
2018-03-11T11:58:17.352Z,8.33
2018-03-11T12:00:43.385Z,7.57
2018-03-11T12:03:09.395Z,10.10
2018-03-11T12:05:35.344Z,10.60
2018-03-11T12:08:01.318Z,9.27
2018-03-11T12:10:27.735Z,8.80
2018-03-11T12:12:53.777Z,8.13
2018-03-11T12:15:19.778Z,9.90
2018-03-11T12:17:45.775Z,8.57
2018-03-11T12:20:12.481Z,8.50
2018-03-11T12:22:38.491Z,8.20
2018-03-11T12:25:04.473Z,7.43
2018-03-11T12:27:30.436Z,6.90
2018-03-11T12:29:56.489Z,9.40
2018-03-11T12:32:23.205Z,8.20
2018-03-11T12:34:49.942Z,6.40
2018-03-11T12:37:15.909Z,6.40
2018-03-11T12:39:41.881Z,6.93
2018-03-11T12:42:07.873Z,6.73
2018-03-11T12:44:33.872Z,6.60
2018-03-11T12:46:59.847Z,6.63
2018-03-11T12:49:25.929Z,7.93
2018-03-11T12:51:51.909Z,7.47
2018-03-11T12:54:17.907Z,7.63
2018-03-11T12:56:43.906Z,7.93
2018-03-11T12:59:09.902Z,7.43
2018-03-11T13:01:35.868Z,8.13
2018-03-11T13:04:02.621Z,7.20
2018-03-11T13:06:28.612Z,7.10
2018-03-11T13:08:54.638Z,8.30
2018-03-11T13:11:20.597Z,8.43
2018-03-11T13:13:46.537Z,8.90
2018-03-11T13:16:12.505Z,8.60
2018-03-11T13:18:38.458Z,8.27
2018-03-11T13:21:05.168Z,7.47
2018-03-11T13:23:31.157Z,8.37
2018-03-11T13:25:57.873Z,8.03
2018-03-11T13:28:36.452Z,7.60
2018-03-11T13:31:02.405Z,7.67
2018-03-11T13:33:41.081Z,7.97
2018-03-11T13:36:07.088Z,8.27
2018-03-11T13:38:45.517Z,8.97
2018-03-11T13:41:11.590Z,7.60
2018-03-11T13:43:37.621Z,7.90
2018-03-11T13:46:16.121Z,7.97
2018-03-11T13:48:42.152Z,8.90
2018-03-11T13:51:08.149Z,7.67
2018-03-11T13:53:47.236Z,8.20
2018-03-11T13:56:13.233Z,8.30
2018-03-11T13:58:44.982Z,8.03
2018-03-11T14:01:10.993Z,9.13
2018-03-11T14:03:36.940Z,8.03
2018-03-11T14:06:02.916Z,9.03
2018-03-11T14:08:29.596Z,9.60
2018-03-11T14:10:55.613Z,9.23
2018-03-11T14:13:22.389Z,8.63
2018-03-11T14:15:48.370Z,10.17
2018-03-11T14:18:14.318Z,9.53
2018-03-11T14:20:40.316Z,9.60
2018-03-11T14:23:06.307Z,9.53
2018-03-11T14:25:33.022Z,9.00
2018-03-11T14:27:59.009Z,8.50
2018-03-11T14:30:25.709Z,9.00
2018-03-11T14:32:51.720Z,9.80
2018-03-11T14:35:17.660Z,9.83
2018-03-11T14:37:43.632Z,9.77
2018-03-11T14:40:09.705Z,8.70
2018-03-11T14:42:36.432Z,9.67
2018-03-11T14:45:02.418Z,10.97
2018-03-11T14:47:28.371Z,11.00
2018-03-11T14:49:54.374Z,11.20
2018-03-11T14:52:20.308Z,10.77
2018-03-11T14:54:46.260Z,15.70
2018-03-11T14:57:12.228Z,13.27
2018-03-11T14:59:38.236Z,13.23
2018-03-11T15:02:04.508Z,11.53
2018-03-11T15:04:30.533Z,12.40
2018-03-11T15:06:56.476Z,12.00
2018-03-11T15:09:22.436Z,11.17
2018-03-11T15:11:48.412Z,11.70
2018-03-11T15:14:14.352Z,11.90
2018-03-11T15:16:40.358Z,11.80
2018-03-11T15:19:07.069Z,12.07
2018-03-11T15:21:33.135Z,12.70
2018-03-11T15:23:59.088Z,15.03
2018-03-11T15:26:25.825Z,15.67
2018-03-11T15:28:51.797Z,12.37
2018-03-11T15:31:17.764Z,12.90
2018-03-11T15:33:43.737Z,13.00
2018-03-11T15:36:09.716Z,12.43
2018-03-11T15:38:35.653Z,15.63
2018-03-11T15:41:01.642Z,11.20
2018-03-11T15:43:27.605Z,10.83
2018-03-11T15:46:00.809Z,10.90
2018-03-11T15:48:26.788Z,12.93
2018-03-11T15:50:52.741Z,11.23
2018-03-11T15:53:18.704Z,14.37
2018-03-11T15:55:45.432Z,12.67
2018-03-11T15:58:11.436Z,11.43
2018-03-11T16:00:37.376Z,14.13
2018-03-11T16:03:03.385Z,11.37
2018-03-11T16:05:29.356Z,13.03
2018-03-11T16:07:55.319Z,17.87
2018-03-11T16:10:21.372Z,16.57
2018-03-11T16:12:47.365Z,20.13
2018-03-11T16:15:13.361Z,21.17
2018-03-11T16:17:39.340Z,18.40
2018-03-11T16:20:05.288Z,19.07
2018-03-11T16:22:31.280Z,20.13
2018-03-11T16:24:57.264Z,21.67
2018-03-11T16:27:23.295Z,27.63
2018-03-11T16:29:49.292Z,21.30
2018-03-11T16:32:15.273Z,22.97
2018-03-11T16:34:41.264Z,25.30
2018-03-11T16:37:07.319Z,22.23
2018-03-11T16:39:33.599Z,30.33
2018-03-11T16:42:00.329Z,22.17
2018-03-11T16:44:26.316Z,24.90
2018-03-11T16:46:53.069Z,23.10
2018-03-11T16:49:19.074Z,24.67
2018-03-11T16:51:45.069Z,23.43
2018-03-11T16:54:11.073Z,23.70
2018-03-11T16:56:37.801Z,26.27
2018-03-11T16:59:04.579Z,26.53
2018-03-11T17:01:31.280Z,33.00
2018-03-11T17:03:57.259Z,30.50
2018-03-11T17:06:24.058Z,26.50
2018-03-11T17:08:50.024Z,28.60
2018-03-11T17:11:16.712Z,33.17
2018-03-11T17:13:43.452Z,37.77
2018-03-11T17:16:10.141Z,29.53
2018-03-11T17:18:36.112Z,31.07
2018-03-11T17:21:02.100Z,31.90
2018-03-11T17:23:28.055Z,26.30
2018-03-11T17:25:54.060Z,28.20
2018-03-11T17:28:20.037Z,27.80
2018-03-11T17:30:46.003Z,26.83
2018-03-11T17:33:11.996Z,27.27
2018-03-11T17:35:38.045Z,24.97
2018-03-11T17:38:04.000Z,26.37
2018-03-11T17:40:29.944Z,27.43
2018-03-11T17:42:55.928Z,27.60
2018-03-11T17:45:21.914Z,26.93
2018-03-11T17:47:47.919Z,25.13
2018-03-11T17:50:13.851Z,25.37
2018-03-11T17:52:39.868Z,26.53
2018-03-11T17:55:05.818Z,21.20
2018-03-11T17:57:31.784Z,24.00
2018-03-11T17:59:57.729Z,20.10
2018-03-11T18:02:23.760Z,20.97
2018-03-11T18:04:49.720Z,20.70
2018-03-11T18:07:15.685Z,22.60
2018-03-11T18:09:41.689Z,21.30
2018-03-11T18:12:07.646Z,20.27
2018-03-11T18:14:34.421Z,18.63
2018-03-11T18:17:00.397Z,20.40
2018-03-11T18:19:26.340Z,22.27
2018-03-11T18:21:52.321Z,21.40
2018-03-11T18:24:18.289Z,23.47
2018-03-11T18:26:44.279Z,17.43
2018-03-11T18:29:10.239Z,19.70
2018-03-11T18:31:36.180Z,18.87
2018-03-11T18:34:02.193Z,19.57
2018-03-11T18:36:28.174Z,19.63
2018-03-11T18:38:54.144Z,17.47
2018-03-11T18:41:20.893Z,18.00
2018-03-11T18:43:46.878Z,18.20
2018-03-11T18:46:12.848Z,19.00
2018-03-11T18:48:38.833Z,20.67
2018-03-11T18:51:04.801Z,19.40
2018-03-11T18:53:37.754Z,17.53
2018-03-11T18:56:04.434Z,18.20
2018-03-11T18:58:30.420Z,17.43
2018-03-11T19:00:57.236Z,16.60
2018-03-11T19:03:23.302Z,20.80
2018-03-11T19:05:49.287Z,16.10
2018-03-11T19:08:15.239Z,15.93
2018-03-11T19:10:41.229Z,17.90
2018-03-11T19:13:08.030Z,19.10
2018-03-11T19:15:33.989Z,16.57
2018-03-11T19:17:59.943Z,17.30
2018-03-11T19:20:25.929Z,16.20
2018-03-11T19:22:51.900Z,16.07
2018-03-11T19:25:17.898Z,15.83
2018-03-11T19:27:43.839Z,16.10
2018-03-11T19:30:09.820Z,16.20
2018-03-11T19:32:37.242Z,16.77
2018-03-11T19:35:03.238Z,15.80
2018-03-11T19:37:29.238Z,16.20
2018-03-11T19:39:55.244Z,17.07
2018-03-11T19:42:21.229Z,15.20
2018-03-11T19:44:47.185Z,16.37
2018-03-11T19:47:13.972Z,14.90
2018-03-11T19:49:39.972Z,15.43
2018-03-11T19:52:05.960Z,16.27
2018-03-11T19:54:31.891Z,15.30
2018-03-11T19:56:57.889Z,14.17
2018-03-11T19:59:24.616Z,14.83
2018-03-11T20:01:50.633Z,16.00
2018-03-11T20:04:16.596Z,15.07
2018-03-11T20:06:42.588Z,16.87
2018-03-11T20:09:08.579Z,15.77
2018-03-11T20:11:35.288Z,19.10
2018-03-11T20:14:01.305Z,15.30
2018-03-11T20:16:27.305Z,16.37
2018-03-11T20:18:53.297Z,14.53
2018-03-11T20:21:19.294Z,16.03
2018-03-11T20:23:46.020Z,15.07
2018-03-11T20:26:12.042Z,15.60
2018-03-11T20:28:38.037Z,14.23
2018-03-11T20:31:04.033Z,15.73
2018-03-11T20:33:29.974Z,16.10
2018-03-11T20:35:55.975Z,15.47
2018-03-11T20:38:21.973Z,16.90
2018-03-11T20:40:48.698Z,17.93
2018-03-11T20:43:14.681Z,16.33
2018-03-11T20:45:40.625Z,15.97
2018-03-11T20:48:06.564Z,17.00
2018-03-11T20:50:32.551Z,15.10
2018-03-11T20:52:59.277Z,19.20
2018-03-11T20:55:25.305Z,17.43
2018-03-11T20:57:51.376Z,15.33
2018-03-11T21:00:18.063Z,15.97
2018-03-11T21:02:44.063Z,16.20
2018-03-11T21:05:10.768Z,17.63
2018-03-11T21:07:36.741Z,17.00
2018-03-11T21:10:02.710Z,16.77
2018-03-11T21:12:28.683Z,15.20
2018-03-11T21:14:54.670Z,18.13
2018-03-11T21:17:21.388Z,15.83
2018-03-11T21:19:47.341Z,17.07
2018-03-11T21:22:13.313Z,17.60
2018-03-11T21:24:39.272Z,19.90
2018-03-11T21:27:05.253Z,16.80
2018-03-11T21:29:31.208Z,17.00
2018-03-11T21:31:57.934Z,17.60
2018-03-11T21:34:25.658Z,20.60
2018-03-11T21:36:51.690Z,18.57
2018-03-11T21:39:17.697Z,16.73
2018-03-11T21:41:44.392Z,16.70
2018-03-11T21:44:10.409Z,17.37
2018-03-11T21:46:36.381Z,17.07
2018-03-11T21:49:02.360Z,17.50
2018-03-11T21:51:29.087Z,19.67
2018-03-11T21:53:55.056Z,18.63
2018-03-11T21:56:21.024Z,17.57
2018-03-11T21:58:47.019Z,17.53
2018-03-11T22:01:13.744Z,17.87
2018-03-11T22:03:39.813Z,17.70
2018-03-11T22:06:05.744Z,15.70
2018-03-11T22:08:32.424Z,16.83
2018-03-11T22:10:58.421Z,17.07
2018-03-11T22:13:25.140Z,18.30
2018-03-11T22:15:51.127Z,14.23
2018-03-11T22:18:17.080Z,16.27
2018-03-11T22:20:43.051Z,18.03
2018-03-11T22:23:09.016Z,17.57
2018-03-11T22:25:34.960Z,16.90
2018-03-11T22:28:01.685Z,18.23
2018-03-11T22:30:27.679Z,16.10
2018-03-11T22:32:53.742Z,18.77
2018-03-11T22:35:19.686Z,16.30
2018-03-11T22:37:45.636Z,16.20
2018-03-11T22:40:11.613Z,16.73
2018-03-11T22:42:37.552Z,15.73
2018-03-11T22:45:03.551Z,16.00
2018-03-11T22:47:29.479Z,16.23
2018-03-11T22:49:55.452Z,15.80
2018-03-11T22:52:21.503Z,16.50
2018-03-11T22:54:47.443Z,16.50
2018-03-11T22:57:13.411Z,17.00
2018-03-11T22:59:39.390Z,16.17
2018-03-11T23:02:06.112Z,17.83
2018-03-11T23:04:32.100Z,15.93
2018-03-11T23:06:58.068Z,17.97
2018-03-11T23:09:24.047Z,16.60
2018-03-11T23:11:50.764Z,16.20
2018-03-11T23:14:16.768Z,16.13
2018-03-11T23:16:42.745Z,16.30
2018-03-11T23:19:20.962Z,15.87
2018-03-11T23:21:46.897Z,16.80
2018-03-11T23:24:12.864Z,16.77
2018-03-11T23:26:39.540Z,17.33
2018-03-11T23:29:05.501Z,16.60
2018-03-11T23:31:31.476Z,16.70
2018-03-11T23:33:57.440Z,16.17
2018-03-11T23:36:23.417Z,17.90
2018-03-11T23:38:49.380Z,16.70
2018-03-11T23:41:16.101Z,17.00
2018-03-11T23:43:42.040Z,17.17
2018-03-11T23:46:08.016Z,18.03
2018-03-11T23:48:34.717Z,16.40
2018-03-11T23:51:00.664Z,17.87
2018-03-11T23:53:26.658Z,19.50
2018-03-11T23:55:52.611Z,17.73
2018-03-11T23:58:18.616Z,17.23
